Time;durP1;ratioP1;P1;durP2;ratioP2;P2;SDS_P1;SDS_P2;PMS_P1;PMS_P2;Temp;Humidity;BMP_temperature;BMP_pressure;BME280_temperature;BME280_humidity;BME280_pressure;Samples;Min_cycle;Max_cycle;Signal;HPM_P1;HPM_P2
2022/05/14 00:02:12;;;;;;;7.95;3.90;;;;;;;18.47;79.93;100241.97;5075711;28;20040;-71
2022/05/14 00:04:40;;;;;;;7.60;3.72;;;;;;;18.33;80.77;100247.78;5075510;28;20048;-72
2022/05/14 00:07:08;;;;;;;10.13;3.83;;;;;;;18.29;81.17;100250.78;5075181;28;20041;-71
2022/05/14 00:09:36;;;;;;;8.73;4.10;;;;;;;18.28;80.65;100254.47;5075675;28;20098;-70
2022/05/14 00:14:57;;;;;;;5.35;3.92;;;;;;;18.07;82.62;100250.22;5074253;28;20439;-71
2022/05/14 00:17:25;;;;;;;6.65;3.85;;;;;;;18.09;83.20;100249.06;5075674;28;20052;-71
2022/05/14 00:19:53;;;;;;;6.40;3.92;;;;;;;18.05;82.93;100252.16;5073999;28;20465;-72
2022/05/14 00:22:21;;;;;;;6.38;4.10;;;;;;;18.15;82.60;100248.50;5075472;28;20052;-71
2022/05/14 00:24:50;;;;;;;5.57;4.05;;;;;;;18.07;83.14;100242.97;5073923;28;20119;-72
2022/05/14 00:27:18;;;;;;;6.15;4.03;;;;;;;18.11;83.19;100254.31;5075378;28;20040;-71
2022/05/14 00:29:47;;;;;;;7.43;4.15;;;;;;;18.02;83.87;100261.41;5073601;28;20048;-71
2022/05/14 00:32:18;;;;;;;9.75;4.15;;;;;;;17.98;83.29;100263.53;5075406;28;20075;-71
2022/05/14 00:34:46;;;;;;;9.77;4.70;;;;;;;17.97;83.57;100261.84;5073980;28;20044;-71
2022/05/14 00:37:15;;;;;;;7.07;4.40;;;;;;;17.94;84.12;100258.53;5075168;28;20044;-71
2022/05/14 00:39:44;;;;;;;6.68;4.88;;;;;;;17.90;84.10;100265.22;5075119;28;20401;-71
2022/05/14 00:42:12;;;;;;;6.20;4.40;;;;;;;17.95;83.47;100252.16;5074813;28;20040;-71
2022/05/14 00:44:40;;;;;;;9.52;4.75;;;;;;;17.90;83.89;100243.63;5073077;28;20053;-70
2022/05/14 00:47:14;;;;;;;6.72;4.60;;;;;;;17.87;84.37;100249.31;5074424;28;20093;-70
2022/05/14 00:49:44;;;;;;;6.72;4.40;;;;;;;17.80;84.87;100248.16;5074627;28;20056;-72
2022/05/14 00:52:16;;;;;;;7.20;4.13;;;;;;;17.85;84.59;100245.88;5073318;28;20049;-72
2022/05/14 00:54:49;;;;;;;6.50;4.55;;;;;;;17.78;84.69;100239.34;5074688;28;20445;-72
2022/05/14 00:57:21;;;;;;;7.63;4.45;;;;;;;17.74;85.59;100236.91;5053752;28;20057;-72
2022/05/14 00:59:50;;;;;;;8.25;5.00;;;;;;;17.76;85.36;100238.63;5062059;28;20048;-75
2022/05/14 01:02:18;;;;;;;7.10;4.65;;;;;;;17.79;85.46;100243.75;5064594;28;20048;-72
2022/05/14 01:04:48;;;;;;;7.85;4.63;;;;;;;17.76;85.74;100244.00;5053499;28;20044;-72
2022/05/14 01:07:20;;;;;;;7.30;4.57;;;;;;;17.74;86.12;100247.72;5054607;28;20056;-72
2022/05/14 01:09:51;;;;;;;7.70;4.70;;;;;;;17.65;86.81;100234.16;5070009;28;20049;-72
2022/05/14 01:12:22;;;;;;;8.32;4.90;;;;;;;17.62;87.15;100238.00;5056357;28;20433;-72
2022/05/14 01:14:51;;;;;;;8.80;4.90;;;;;;;17.61;87.41;100233.59;5054324;28;20044;-78
2022/05/14 01:17:20;;;;;;;10.23;4.95;;;;;;;17.54;88.71;100243.22;5054515;28;20132;-72
2022/05/14 01:19:49;;;;;;;8.05;5.05;;;;;;;17.56;88.48;100243.06;5069605;28;20063;-71
2022/05/14 01:22:34;;;;;;;7.22;4.68;;;;;;;17.52;89.08;100242.50;5054334;28;20041;-73
2022/05/14 01:27:57;;;;;;;8.23;4.75;;;;;;;17.54;89.95;100242.38;5053757;28;20051;-73
2022/05/14 01:30:25;;;;;;;7.63;4.88;;;;;;;17.55;89.76;100241.38;5054136;28;20045;-71
2022/05/14 01:33:05;;;;;;;8.05;5.20;;;;;;;17.56;90.18;100253.88;5053903;28;20047;-70
2022/05/14 01:35:34;;;;;;;7.38;5.25;;;;;;;17.42;90.99;100252.41;5053005;28;20071;-71
2022/05/14 01:38:02;;;;;;;8.73;5.13;;;;;;;17.43;91.44;100257.66;5053858;28;20569;-74
2022/05/14 01:40:31;;;;;;;7.30;4.95;;;;;;;17.45;91.85;100254.81;5052863;28;20044;-72
2022/05/14 01:43:01;;;;;;;7.63;5.30;;;;;;;17.39;92.10;100250.84;5053293;28;20048;-70
2022/05/14 01:45:29;;;;;;;6.90;5.13;;;;;;;17.25;94.09;100253.88;5053880;28;20037;-70
2022/05/14 01:47:57;;;;;;;7.90;4.97;;;;;;;17.32;93.85;100254.22;5053493;28;20040;-71
2022/05/14 01:50:26;;;;;;;8.93;5.57;;;;;;;17.31;94.19;100247.13;5052490;28;20106;-71
2022/05/14 01:52:54;;;;;;;10.55;5.82;;;;;;;17.25;95.24;100243.09;5053552;28;20037;-73
2022/05/14 01:55:23;;;;;;;7.57;5.22;;;;;;;17.17;95.97;100245.63;5054105;28;20049;-69
2022/05/14 01:57:51;;;;;;;6.50;5.07;;;;;;;17.11;97.07;100241.63;5053915;28;20048;-68
2022/05/14 02:00:22;;;;;;;9.02;5.57;;;;;;;17.08;98.47;100251.81;5053457;28;20037;-69
2022/05/14 02:02:51;;;;;;;6.70;5.00;;;;;;;16.99;99.63;100248.09;5052587;28;20045;-70
2022/05/14 02:05:20;;;;;;;8.57;5.30;;;;;;;16.94;100.00;100247.63;5052613;28;20080;-69
2022/05/14 02:07:48;;;;;;;7.00;4.90;;;;;;;17.06;99.30;100251.94;5053603;28;20095;-70
2022/05/14 02:10:16;;;;;;;7.30;5.05;;;;;;;16.86;100.00;100258.22;5051850;28;20052;-70
2022/05/14 02:12:45;;;;;;;9.25;5.15;;;;;;;16.89;100.00;100244.50;5053557;28;20115;-70
2022/05/14 02:15:13;;;;;;;7.05;4.88;;;;;;;16.84;100.00;100257.50;5053162;28;20486;-71
2022/05/14 02:17:43;;;;;;;8.30;4.78;;;;;;;16.78;100.00;100255.31;5052062;28;20192;-73
2022/05/14 02:20:12;;;;;;;9.27;5.20;;;;;;;16.73;100.00;100261.13;5051810;28;20048;-70
2022/05/14 02:22:42;;;;;;;7.10;4.93;;;;;;;16.59;100.00;100259.56;5053469;28;20064;-70
2022/05/14 02:25:11;;;;;;;9.38;5.47;;;;;;;16.76;100.00;100265.38;5053063;28;20048;-70
2022/05/14 02:27:40;;;;;;;7.75;5.18;;;;;;;16.55;100.00;100263.50;5053160;28;20060;-72
2022/05/14 02:30:09;;;;;;;8.13;5.20;;;;;;;16.58;100.00;100265.06;5053264;28;20482;-72
2022/05/14 02:32:38;;;;;;;10.32;5.30;;;;;;;16.60;100.00;100266.69;5051889;28;20044;-70
2022/05/14 02:35:08;;;;;;;9.02;5.40;;;;;;;16.62;100.00;100271.06;5051931;28;20051;-71
2022/05/14 02:37:40;;;;;;;9.15;5.00;;;;;;;16.72;100.00;100266.66;5053222;28;20176;-72
2022/05/14 02:40:08;;;;;;;8.82;5.50;;;;;;;16.54;100.00;100267.19;5052593;28;20063;-72
2022/05/14 02:42:36;;;;;;;7.90;5.20;;;;;;;16.45;100.00;100259.88;5053116;28;20401;-71
2022/05/14 02:45:06;;;;;;;8.52;5.60;;;;;;;16.50;100.00;100267.56;5053168;28;20045;-71
2022/05/14 02:47:34;;;;;;;9.57;5.60;;;;;;;16.43;100.00;100269.94;5053107;28;20056;-69
2022/05/14 02:50:04;;;;;;;9.10;5.35;;;;;;;16.49;100.00;100266.72;5051061;28;20061;-70
2022/05/14 02:52:34;;;;;;;7.18;5.18;;;;;;;16.47;100.00;100266.00;5053013;28;20079;-72
2022/05/14 02:55:02;;;;;;;7.97;5.50;;;;;;;16.40;100.00;100277.41;5051524;28;20083;-72
2022/05/14 02:57:31;;;;;;;6.90;5.65;;;;;;;16.40;100.00;100278.25;5051790;28;20053;-72
2022/05/14 02:59:59;;;;;;;8.15;5.65;;;;;;;16.34;100.00;100284.16;5051408;28;20053;-71
2022/05/14 03:02:27;;;;;;;9.00;5.75;;;;;;;16.46;100.00;100283.13;5053093;28;20041;-73
2022/05/14 03:04:55;;;;;;;7.75;5.80;;;;;;;16.51;100.00;100280.91;5052927;28;20068;-70
2022/05/14 03:07:25;;;;;;;8.90;5.95;;;;;;;16.43;100.00;100291.47;5051847;28;20053;-69
2022/05/14 03:09:55;;;;;;;10.57;5.68;;;;;;;16.29;100.00;100294.44;5056044;28;20076;-70
2022/05/14 03:12:24;;;;;;;8.10;5.78;;;;;;;16.23;100.00;100297.66;5056815;28;20056;-71
2022/05/14 03:14:52;;;;;;;8.65;5.28;;;;;;;16.18;100.00;100295.34;5056438;28;20049;-71
2022/05/14 03:17:21;;;;;;;11.25;5.93;;;;;;;16.36;100.00;100297.50;5056478;28;20049;-72
2022/05/14 03:19:50;;;;;;;9.98;6.43;;;;;;;16.39;100.00;100303.47;5055373;28;20509;-72
2022/05/14 03:22:18;;;;;;;9.27;6.00;;;;;;;16.45;100.00;100308.34;5056077;28;20049;-72
2022/05/14 03:24:46;;;;;;;8.25;5.80;;;;;;;16.31;100.00;100303.28;5056281;28;20047;-72
2022/05/14 03:27:16;;;;;;;8.18;5.55;;;;;;;16.48;100.00;100302.69;5056318;28;20538;-72
2022/05/14 03:29:44;;;;;;;8.60;5.72;;;;;;;16.42;100.00;100303.22;5055081;28;20049;-71
2022/05/14 03:32:12;;;;;;;9.60;5.97;;;;;;;16.35;100.00;100307.41;5055907;28;20041;-72
2022/05/14 03:34:40;;;;;;;7.88;5.82;;;;;;;16.24;100.00;100300.22;5054772;28;20520;-72
2022/05/14 03:37:08;;;;;;;7.07;5.57;;;;;;;16.23;100.00;100313.81;5056141;28;20470;-72
2022/05/14 03:39:36;;;;;;;9.48;6.18;;;;;;;16.24;100.00;100320.91;5056270;28;20123;-72
2022/05/14 03:42:05;;;;;;;10.65;6.13;;;;;;;16.40;100.00;100325.84;5055736;28;20047;-72
2022/05/14 03:44:35;;;;;;;10.07;5.97;;;;;;;16.45;100.00;100329.88;5056317;28;20047;-72
2022/05/14 03:47:03;;;;;;;8.70;5.78;;;;;;;16.58;100.00;100330.56;5055925;28;20124;-71
2022/05/14 03:49:31;;;;;;;7.70;5.55;;;;;;;16.84;100.00;100324.84;5054484;28;20115;-71
2022/05/14 03:52:00;;;;;;;8.82;5.82;;;;;;;17.25;100.00;100328.50;5056080;28;20385;-71
2022/05/14 03:54:31;;;;;;;7.90;5.93;;;;;;;17.81;100.00;100323.56;5055914;28;20064;-71
2022/05/14 03:57:00;;;;;;;10.20;6.18;;;;;;;18.34;91.51;100338.63;5054697;28;20451;-69
2022/05/14 03:59:28;;;;;;;7.95;5.43;;;;;;;18.77;84.87;100336.38;5055649;28;20037;-69
2022/05/14 04:02:00;;;;;;;9.68;5.30;;;;;;;19.02;80.83;100344.91;5055858;28;20128;-69
2022/05/14 04:04:28;;;;;;;9.07;5.25;;;;;;;19.56;76.39;100346.09;5055874;28;20095;-68
2022/05/14 04:06:57;;;;;;;9.43;5.47;;;;;;;19.57;75.35;100350.50;5055533;28;20094;-69
2022/05/14 04:09:26;;;;;;;6.90;5.20;;;;;;;19.47;76.05;100346.94;5053982;28;20052;-68
2022/05/14 04:11:54;;;;;;;7.40;5.45;;;;;;;19.95;72.77;100349.47;5054371;28;20135;-68
2022/05/14 04:14:23;;;;;;;7.65;5.55;;;;;;;20.49;69.48;100351.34;5055366;28;20041;-69
2022/05/14 04:16:51;;;;;;;8.57;5.07;;;;;;;20.50;68.75;100358.47;5055256;28;20073;-68
2022/05/14 04:19:21;;;;;;;7.07;5.18;;;;;;;20.79;67.40;100360.94;5055209;28;20493;-70
2022/05/14 04:21:49;;;;;;;7.78;5.20;;;;;;;20.81;65.68;100358.94;5054264;28;20132;-70
2022/05/14 04:24:17;;;;;;;7.68;5.43;;;;;;;20.93;65.71;100373.09;5053910;28;20045;-69
2022/05/14 04:26:45;;;;;;;9.30;5.00;;;;;;;21.05;65.07;100366.44;5055052;28;20059;-69
2022/05/14 04:29:14;;;;;;;7.07;5.30;;;;;;;21.12;64.74;100374.78;5054737;28;20094;-71
2022/05/14 04:31:42;;;;;;;8.25;4.60;;;;;;;21.46;62.74;100374.91;5053915;28;20072;-70
2022/05/14 04:34:11;;;;;;;7.18;5.05;;;;;;;21.73;63.04;100381.19;5053679;28;20542;-71
2022/05/14 04:36:40;;;;;;;6.60;4.50;;;;;;;21.90;60.66;100383.78;5053993;28;20132;-71
2022/05/14 04:39:08;;;;;;;7.88;4.40;;;;;;;21.84;60.59;100383.63;5053575;28;20137;-71
2022/05/14 04:41:36;;;;;;;6.50;4.32;;;;;;;21.70;60.52;100383.19;5055163;28;20464;-71
2022/05/14 04:44:08;;;;;;;6.03;4.57;;;;;;;22.01;59.14;100379.97;5053676;28;20056;-71
2022/05/14 04:46:36;;;;;;;6.75;4.72;;;;;;;21.50;59.85;100389.84;5055511;28;20561;-71
2022/05/14 04:49:05;;;;;;;8.82;4.63;;;;;;;22.09;57.99;100388.16;5074317;28;20054;-72
2022/05/14 04:51:34;;;;;;;6.75;4.53;;;;;;;22.33;57.24;100389.28;5075205;28;20481;-71
2022/05/14 04:54:03;;;;;;;6.97;4.20;;;;;;;22.84;54.89;100390.97;5073856;28;20401;-71
2022/05/14 04:56:33;;;;;;;6.25;4.32;;;;;;;22.81;55.27;100388.56;5073693;28;20049;-71
2022/05/14 04:59:01;;;;;;;6.22;4.30;;;;;;;22.76;54.57;100389.03;5074868;28;20120;-74
2022/05/14 05:01:30;;;;;;;8.57;4.20;;;;;;;22.60;54.82;100386.31;5074714;28;20071;-74
2022/05/14 05:03:57;;;;;;;6.50;3.90;;;;;;;22.54;54.22;100390.53;5073361;28;20058;-74
2022/05/14 05:06:27;;;;;;;7.18;3.90;;;;;;;23.63;52.29;100394.88;5073098;28;20440;-71
2022/05/14 05:08:55;;;;;;;5.57;3.80;;;;;;;23.28;52.00;100401.53;5074744;28;20044;-71
2022/05/14 05:11:25;;;;;;;7.07;3.50;;;;;;;23.23;51.34;100402.03;5074335;28;20123;-70
2022/05/14 05:13:54;;;;;;;5.88;3.70;;;;;;;23.86;49.52;100401.31;5073352;28;20386;-70
2022/05/14 05:16:22;;;;;;;5.85;3.78;;;;;;;23.95;49.03;100400.25;5072976;28;20397;-71
2022/05/14 05:18:50;;;;;;;9.13;4.05;;;;;;;24.42;47.01;100407.59;5073184;28;20075;-72
2022/05/14 05:21:18;;;;;;;5.93;3.17;;;;;;;25.00;45.81;100403.47;5074070;28;20554;-73
2022/05/14 05:23:47;;;;;;;8.20;3.70;;;;;;;25.26;45.70;100410.44;5073209;28;20048;-72
2022/05/14 05:26:16;;;;;;;5.75;3.20;;;;;;;25.04;44.99;100413.03;5071334;28;20072;-73
2022/05/14 05:28:45;;;;;;;6.45;3.53;;;;;;;24.72;45.44;100418.69;5073175;28;20143;-73
2022/05/14 05:31:13;;;;;;;9.32;3.45;;;;;;;24.92;43.87;100417.19;5073407;28;20049;-73
2022/05/14 05:33:41;;;;;;;6.25;2.90;;;;;;;25.28;44.05;100419.31;5054591;28;20037;-72
2022/05/14 05:36:10;;;;;;;5.95;3.10;;;;;;;25.04;42.78;100417.63;5069186;28;20044;-71
2022/05/14 05:38:38;;;;;;;6.65;2.97;;;;;;;24.64;43.62;100425.03;5069466;28;20060;-70
2022/05/14 05:41:07;;;;;;;5.95;3.20;;;;;;;25.09;42.09;100426.97;5069195;28;20057;-70
2022/05/14 05:43:35;;;;;;;6.88;2.85;;;;;;;25.10;42.32;100423.22;5052204;28;20106;-71
2022/05/14 05:46:05;;;;;;;8.32;2.88;;;;;;;25.66;41.19;100428.34;5053768;28;20045;-71
2022/05/14 05:48:33;;;;;;;5.65;2.92;;;;;;;25.87;40.15;100430.41;5052527;28;20045;-71
2022/05/14 05:51:01;;;;;;;5.57;2.88;;;;;;;25.64;40.66;100431.25;5053716;28;20069;-71
2022/05/14 05:58:57;;;;;;;7.00;2.80;;;;;;;25.44;40.49;100435.56;5073643;28;20036;-70
2022/05/14 06:01:28;;;;;;;7.32;2.92;;;;;;;25.85;39.62;100437.91;5073022;28;20131;-70
2022/05/14 06:03:57;;;;;;;6.15;2.70;;;;;;;25.37;38.28;100440.03;5072189;28;20059;-69
2022/05/14 06:06:25;;;;;;;7.00;2.70;;;;;;;25.74;37.76;100435.66;5073296;28;20033;-70
2022/05/14 06:08:54;;;;;;;6.85;2.75;;;;;;;26.17;37.50;100440.31;5072124;28;20102;-69
2022/05/14 06:11:22;;;;;;;9.70;2.95;;;;;;;26.43;36.68;100436.25;5073063;28;20037;-70
2022/05/14 06:13:50;;;;;;;6.35;2.85;;;;;;;26.28;36.83;100436.25;5071942;28;20083;-69
2022/05/14 06:16:19;;;;;;;8.65;2.92;;;;;;;26.84;35.70;100430.22;5071895;28;20049;-69
2022/05/14 06:18:48;;;;;;;6.68;2.88;;;;;;;26.95;35.57;100429.72;5073269;28;20055;-69
2022/05/14 06:21:16;;;;;;;6.93;2.60;;;;;;;27.31;34.90;100430.53;5071662;28;20059;-69
2022/05/14 06:23:45;;;;;;;6.93;2.47;;;;;;;27.16;34.46;100432.50;5071946;28;20052;-69
2022/05/14 06:26:13;;;;;;;7.05;2.42;;;;;;;27.21;33.60;100435.47;5071616;28;20066;-69
2022/05/14 06:28:41;;;;;;;6.68;2.40;;;;;;;27.66;33.15;100444.34;5072941;28;20529;-71
2022/05/14 06:31:09;;;;;;;9.45;3.05;;;;;;;27.54;33.21;100434.94;5071487;28;20076;-72
2022/05/14 06:33:38;;;;;;;8.95;2.40;;;;;;;27.33;32.84;100447.63;5071861;28;20455;-72
2022/05/14 06:36:07;;;;;;;8.40;2.45;;;;;;;26.92;33.92;100436.41;5071883;28;20044;-71
2022/05/14 06:38:35;;;;;;;5.15;2.30;;;;;;;27.33;33.03;100439.41;5058942;28;20077;-70
2022/05/14 06:41:08;;;;;;;6.13;2.72;;;;;;;27.84;32.64;100436.47;5062366;28;20135;-70
2022/05/14 06:43:37;;;;;;;5.97;2.45;;;;;;;26.85;33.24;100440.97;5072579;28;20134;-70
2022/05/14 06:46:06;;;;;;;6.80;2.30;;;;;;;26.88;33.11;100450.69;5076031;28;20044;-73
2022/05/14 06:48:34;;;;;;;4.40;2.33;;;;;;;26.93;33.37;100449.06;5075523;28;20440;-74
2022/05/14 06:51:09;;;;;;;5.47;2.30;;;;;;;26.39;34.23;100456.81;5075849;28;20044;-74
2022/05/14 06:53:41;;;;;;;6.05;2.47;;;;;;;25.77;34.90;100458.00;5077222;28;20040;-74
2022/05/14 06:56:12;;;;;;;8.30;2.35;;;;;;;24.59;35.96;100459.28;5075882;28;20123;-71
2022/05/14 06:58:42;;;;;;;6.07;2.85;;;;;;;24.11;37.46;100464.72;5061440;28;20083;-72
2022/05/14 07:01:10;;;;;;;7.70;2.50;;;;;;;23.30;39.00;100462.06;5055645;28;20081;-73
2022/05/14 07:06:40;;;;;;;7.30;2.80;;;;;;;22.80;41.16;100469.28;5056290;28;20040;-70
2022/05/14 07:09:12;;;;;;;10.90;3.08;;;;;;;23.03;41.50;100460.50;5055257;28;20059;-73
2022/05/14 07:11:42;;;;;;;6.68;2.70;;;;;;;22.60;41.54;100470.59;5071769;28;20049;-71
2022/05/14 07:14:12;;;;;;;7.72;2.85;;;;;;;22.50;41.28;100467.16;5057235;28;20132;-73
2022/05/14 07:16:41;;;;;;;4.85;2.58;;;;;;;22.13;42.25;100471.06;5054851;28;20060;-69
2022/05/14 07:19:10;;;;;;;6.80;2.53;;;;;;;21.89;41.87;100473.56;5071867;28;20053;-73
2022/05/14 07:21:42;;;;;;;6.72;2.70;;;;;;;22.26;41.76;100482.31;5055442;28;20057;-72
2022/05/14 07:24:15;;;;;;;6.40;2.75;;;;;;;22.36;41.49;100481.34;5061864;28;20048;-73
2022/05/14 07:26:44;;;;;;;8.63;2.72;;;;;;;22.31;40.97;100481.00;5055454;28;20171;-70
2022/05/14 07:29:16;;;;;;;9.07;2.60;;;;;;;22.07;42.03;100481.69;5055069;28;20136;-74
2022/05/14 07:31:44;;;;;;;7.80;2.63;;;;;;;21.98;40.88;100488.91;5072268;28;20410;-76
2022/05/14 07:34:13;;;;;;;7.28;2.53;;;;;;;22.10;40.47;100487.69;5055028;28;20045;-81
2022/05/14 07:36:48;;;;;;;4.38;2.40;;;;;;;22.14;41.34;100483.63;5055909;28;20490;-79
2022/05/14 07:39:19;;;;;;;8.93;3.03;;;;;;;22.28;41.68;100495.72;5054819;28;20049;-77
2022/05/14 07:41:53;;;;;;;12.55;3.25;;;;;;;21.78;41.37;100496.41;5055172;28;20140;-73
2022/05/14 07:44:25;;;;;;;7.43;2.80;;;;;;;21.58;42.26;100493.03;5054860;28;20045;-72
2022/05/14 07:46:54;;;;;;;10.20;2.95;;;;;;;21.65;41.12;100494.13;5055066;28;20053;-73
2022/05/14 07:49:24;;;;;;;7.88;2.72;;;;;;;21.69;42.45;100484.63;5054617;28;20056;-75
2022/05/14 07:51:56;;;;;;;7.35;2.88;;;;;;;21.81;41.22;100487.09;5071519;28;20431;-74
2022/05/14 07:54:25;;;;;;;7.80;2.80;;;;;;;21.60;39.75;100485.59;5053613;28;20529;-75
2022/05/14 07:56:56;;;;;;;7.63;2.45;;;;;;;21.62;38.87;100491.72;5054346;28;20049;-73
2022/05/14 07:59:24;;;;;;;7.03;2.55;;;;;;;21.63;40.37;100484.44;5054389;28;20052;-74
2022/05/14 08:01:53;;;;;;;4.93;2.70;;;;;;;21.68;40.82;100488.38;5054537;28;20482;-72
2022/05/14 08:04:21;;;;;;;11.02;3.20;;;;;;;21.55;42.66;100490.66;5071060;28;20052;-72
2022/05/14 08:06:49;;;;;;;7.28;2.53;;;;;;;21.64;38.47;100495.13;5054641;28;20132;-76
2022/05/14 08:09:19;;;;;;;5.97;2.50;;;;;;;21.70;38.33;100502.63;5055634;28;20425;-73
2022/05/14 08:11:47;;;;;;;5.15;2.55;;;;;;;21.75;38.44;100495.88;5054379;28;20510;-77
2022/05/14 08:14:16;;;;;;;6.80;2.60;;;;;;;21.71;37.80;100504.34;5054180;28;20053;-80
2022/05/14 08:16:44;;;;;;;9.88;2.67;;;;;;;21.70;37.78;100496.34;5055323;28;20116;-77
2022/05/14 08:19:12;;;;;;;7.85;2.50;;;;;;;21.65;37.84;100487.84;5054039;28;20049;-74
2022/05/14 08:24:35;;;;;;;3.47;1.75;;;;;;;21.67;35.96;100483.94;5070409;28;20049;-74
2022/05/14 08:27:05;;;;;;;6.60;2.42;;;;;;;21.55;38.45;100487.94;5054210;28;20132;-70
2022/05/14 08:29:41;;;;;;;8.27;2.60;;;;;;;21.89;37.18;100488.00;5053610;28;20088;-73
2022/05/14 08:32:10;;;;;;;7.03;2.50;;;;;;;21.69;37.13;100500.06;5053202;28;20055;-69
2022/05/14 08:34:39;;;;;;;9.00;2.80;;;;;;;21.65;37.83;100495.97;5053412;28;20055;-69
2022/05/14 08:37:08;;;;;;;5.50;2.33;;;;;;;21.94;37.77;100492.97;5053869;28;20144;-69
2022/05/14 08:39:38;;;;;;;7.45;2.22;;;;;;;21.91;37.67;100491.44;5052994;28;20052;-69
2022/05/14 08:42:09;;;;;;;4.60;2.10;;;;;;;21.98;37.69;100483.47;5053820;28;20103;-69
2022/05/14 08:44:42;;;;;;;4.97;2.20;;;;;;;21.97;37.55;100492.63;5052966;28;20072;-69
2022/05/14 08:47:26;;;;;;;7.60;2.50;;;;;;;22.17;37.18;100494.16;5053674;28;20098;-70
2022/05/14 08:49:56;;;;;;;6.30;2.55;;;;;;;21.97;37.86;100485.34;5053266;28;20064;-70
2022/05/14 08:52:32;;;;;;;7.35;2.50;;;;;;;21.99;38.06;100479.75;5053026;28;20059;-70
2022/05/14 08:55:05;;;;;;;5.13;2.47;;;;;;;21.92;38.28;100481.41;5053161;28;20053;-71
2022/05/14 08:57:46;;;;;;;12.30;2.83;;;;;;;21.88;38.01;100491.72;5053195;28;20049;-71
2022/05/14 09:00:15;;;;;;;5.03;2.53;;;;;;;21.88;38.78;100490.88;5053387;28;20056;-70
2022/05/14 09:02:47;;;;;;;4.32;2.20;;;;;;;21.83;37.86;100487.81;5054589;28;20051;-71
2022/05/14 09:05:19;;;;;;;8.48;2.60;;;;;;;22.02;37.73;100490.31;5054594;28;20044;-70
2022/05/14 09:07:50;;;;;;;7.18;2.80;;;;;;;21.83;39.03;100490.53;5068946;28;20056;-70
2022/05/14 09:10:27;;;;;;;5.07;2.33;;;;;;;21.79;38.76;100483.69;5053373;28;20057;-70
2022/05/14 09:12:58;;;;;;;6.03;2.50;;;;;;;21.89;38.75;100479.00;5053261;28;20045;-70
2022/05/14 09:15:29;;;;;;;6.88;2.53;;;;;;;21.75;39.51;100482.31;5052964;28;20048;-71
2022/05/14 09:18:06;;;;;;;5.63;2.50;;;;;;;21.80;39.52;100493.53;5054105;28;20472;-70
2022/05/14 09:20:44;;;;;;;8.80;3.00;;;;;;;21.74;39.43;100480.63;5052769;28;20136;-71
2022/05/14 09:23:12;;;;;;;6.03;2.67;;;;;;;21.86;40.41;100482.91;5053042;28;20056;-70
2022/05/14 09:25:42;;;;;;;4.93;2.60;;;;;;;22.03;40.16;100478.44;5052698;28;20048;-70
2022/05/14 09:28:13;;;;;;;8.07;3.10;;;;;;;22.16;39.80;100478.00;5053032;28;20045;-70
2022/05/14 09:30:46;;;;;;;7.18;2.83;;;;;;;22.24;39.69;100467.19;5053948;28;20477;-70
2022/05/14 09:33:27;;;;;;;8.43;3.15;;;;;;;22.36;40.27;100470.47;5052987;28;20135;-70
2022/05/14 09:35:57;;;;;;;7.63;3.08;;;;;;;22.38;40.18;100473.88;5052843;28;20048;-70
2022/05/14 09:38:27;;;;;;;8.68;3.10;;;;;;;22.42;39.14;100467.13;5052531;28;20507;-70
2022/05/14 09:41:09;;;;;;;12.80;3.03;;;;;;;22.65;39.67;100454.63;5053259;28;20453;-71
2022/05/14 09:43:39;;;;;;;3.00;2.03;;;;;;;22.61;38.49;100457.84;5051884;28;20447;-71
2022/05/14 09:46:10;;;;;;;6.30;3.00;;;;;;;22.37;38.34;100461.31;5053179;28;20136;-70
2022/05/14 09:48:48;;;;;;;7.15;2.83;;;;;;;22.52;38.45;100454.25;5053011;28;20102;-70
2022/05/14 09:51:29;;;;;;;7.88;2.75;;;;;;;22.74;38.47;100448.19;5055535;28;20044;-69
2022/05/14 09:54:12;;;;;;;6.25;2.53;;;;;;;22.80;37.53;100461.13;5071795;28;20044;-70
2022/05/14 09:56:57;;;;;;;5.82;2.45;;;;;;;22.77;37.70;100439.69;5073204;28;20390;-71
2022/05/14 09:59:39;;;;;;;4.97;2.60;;;;;;;22.85;37.59;100436.16;5072158;28;20048;-70
2022/05/14 10:02:14;;;;;;;5.78;2.65;;;;;;;22.82;37.09;100440.06;5073172;28;20048;-69
2022/05/14 10:04:55;;;;;;;9.70;2.63;;;;;;;22.81;36.63;100432.91;5071868;28;20480;-69
2022/05/14 10:07:29;;;;;;;5.95;2.17;;;;;;;22.69;37.26;100438.84;5072334;28;20058;-70
2022/05/14 10:10:19;;;;;;;6.47;2.50;;;;;;;22.64;37.27;100447.47;5072610;28;20533;-72
2022/05/14 10:12:55;;;;;;;6.40;2.70;;;;;;;22.70;36.93;100454.97;5071707;28;20044;-74
2022/05/14 10:15:33;;;;;;;6.43;2.58;;;;;;;22.77;37.17;100444.28;5072865;28;20464;-86
2022/05/14 10:18:13;;;;;;;7.47;3.00;;;;;;;22.70;37.79;100440.53;5073114;28;20041;-76
2022/05/14 10:20:52;;;;;;;6.43;2.95;;;;;;;22.58;37.00;100439.97;5071602;28;20079;-75
2022/05/14 10:26:46;;;;;;;5.22;2.72;;;;;;;22.69;37.15;100444.28;5071914;28;20127;-78
2022/05/14 10:29:31;;;;;;;6.68;2.47;;;;;;;22.47;37.13;100432.13;5072058;28;20052;-72
2022/05/14 10:32:02;;;;;;;5.75;2.72;;;;;;;23.00;36.87;100425.50;5073148;28;20079;-73
2022/05/14 10:34:40;;;;;;;6.72;2.60;;;;;;;23.16;36.01;100435.53;5071710;28;20051;-81
2022/05/14 10:37:18;;;;;;;7.82;2.50;;;;;;;23.27;36.59;100438.78;5072014;28;20072;-72
2022/05/14 10:39:56;;;;;;;6.65;2.60;;;;;;;23.32;36.20;100430.09;5071275;28;20466;-72
2022/05/14 10:42:33;;;;;;;6.20;2.40;;;;;;;23.28;35.53;100443.19;5070144;28;20074;-72
2022/05/14 10:45:10;;;;;;;6.75;2.83;;;;;;;22.83;35.70;100436.31;5071069;28;20037;-71
2022/05/14 10:47:44;;;;;;;5.72;2.30;;;;;;;23.12;35.41;100429.59;5072027;28;20079;-75
2022/05/14 10:50:18;;;;;;;4.75;2.28;;;;;;;22.83;34.83;100436.31;5073185;28;20127;-75
2022/05/14 10:52:48;;;;;;;5.55;2.25;;;;;;;22.75;34.73;100433.56;5072727;28;20090;-74
2022/05/14 10:55:18;;;;;;;7.30;2.33;;;;;;;22.69;35.70;100426.09;5071688;28;20051;-73
2022/05/14 10:57:52;;;;;;;5.75;2.20;;;;;;;23.08;35.15;100429.09;5072909;28;20041;-75
2022/05/14 11:00:38;;;;;;;3.22;2.13;;;;;;;23.34;35.57;100430.78;5071795;28;20049;-76
2022/05/14 11:03:13;;;;;;;8.50;2.28;;;;;;;22.89;34.84;100429.41;5073065;28;20071;-74
2022/05/14 11:05:55;;;;;;;4.90;2.17;;;;;;;22.96;34.41;100429.56;5071400;28;20098;-76
2022/05/14 11:08:32;;;;;;;5.60;2.30;;;;;;;23.00;34.58;100415.47;5072703;28;20049;-78
2022/05/14 11:11:13;;;;;;;4.78;2.25;;;;;;;23.22;34.29;100419.38;5071669;28;20059;-77
2022/05/14 11:13:41;;;;;;;8.23;2.10;;;;;;;23.14;34.81;100422.09;5071298;28;20051;-77
2022/05/14 11:16:13;;;;;;;4.85;2.45;;;;;;;23.31;34.41;100417.50;5073109;28;20064;-76
2022/05/14 11:18:48;;;;;;;7.28;2.22;;;;;;;23.01;34.78;100424.47;5071318;28;20049;-72
2022/05/14 11:21:22;;;;;;;6.68;2.13;;;;;;;22.95;35.24;100419.69;5072768;28;20041;-76
2022/05/14 11:23:55;;;;;;;5.47;2.33;;;;;;;22.95;35.53;100430.56;5071387;28;20053;-77
2022/05/14 11:26:25;;;;;;;6.85;2.58;;;;;;;23.12;34.84;100425.00;5072657;28;20064;-78
2022/05/14 11:29:02;;;;;;;4.85;2.30;;;;;;;22.90;35.06;100413.94;5071102;28;20128;-76
2022/05/14 11:31:39;;;;;;;6.32;2.25;;;;;;;22.87;35.00;100416.97;5075049;28;20080;-76
2022/05/14 11:34:18;;;;;;;8.55;2.25;;;;;;;22.94;34.84;100418.00;5075342;28;20509;-77
2022/05/14 11:36:49;;;;;;;6.45;2.53;;;;;;;23.01;35.21;100411.72;5074770;28;20048;-79
2022/05/14 11:39:30;;;;;;;5.75;2.72;;;;;;;23.42;36.05;100403.56;5075093;28;20447;-73
2022/05/14 11:42:13;;;;;;;6.28;2.35;;;;;;;23.35;34.48;100418.84;5075976;28;20066;-77
2022/05/14 11:44:49;;;;;;;6.47;2.30;;;;;;;23.13;33.71;100409.50;5074140;28;20048;-77
2022/05/14 11:47:43;;;;;;;6.43;2.40;;;;;;;23.04;33.74;100407.81;5075978;28;20368;-79
2022/05/14 11:50:13;;;;;;;;;;;;;;;23.18;33.42;100407.16;5075022;28;20056;-82
2022/05/14 11:52:56;;;;;;;6.15;2.15;;;;;;;22.91;33.46;100412.91;5075673;28;19946;-80
2022/05/14 11:55:27;;;;;;;3.53;1.70;;;;;;;23.14;32.88;100406.63;5074819;28;20134;-81
2022/05/14 11:58:07;;;;;;;6.35;2.17;;;;;;;23.32;33.25;100398.28;5074214;28;20135;-80
2022/05/14 12:00:36;;;;;;;4.20;2.10;;;;;;;23.26;33.07;100409.88;5074725;28;20139;-82
2022/05/14 12:03:14;;;;;;;4.13;2.17;;;;;;;23.35;33.36;100408.81;5075313;28;20048;-81